sensor_id;sensor_type;location;lat;lon;timestamp;P1;durP1;ratioP1;P2;durP2;ratioP2
20623;SDS011;10471;42.736;23.346;2022-07-24T00:00:16;20.10;;;11.20;;
20623;SDS011;10471;42.736;23.346;2022-07-24T00:02:42;17.40;;;10.97;;
20623;SDS011;10471;42.736;23.346;2022-07-24T00:05:08;20.23;;;10.60;;
20623;SDS011;10471;42.736;23.346;2022-07-24T00:07:34;19.27;;;10.33;;
20623;SDS011;10471;42.736;23.346;2022-07-24T00:10:00;17.37;;;9.90;;
20623;SDS011;10471;42.736;23.346;2022-07-24T00:12:26;18.97;;;11.00;;
20623;SDS011;10471;42.736;23.346;2022-07-24T00:14:52;20.77;;;10.63;;
20623;SDS011;10471;42.736;23.346;2022-07-24T00:17:17;20.77;;;9.43;;
20623;SDS011;10471;42.736;23.346;2022-07-24T00:19:42;15.13;;;10.47;;
20623;SDS011;10471;42.736;23.346;2022-07-24T00:22:08;24.57;;;13.27;;
20623;SDS011;10471;42.736;23.346;2022-07-24T00:24:33;20.20;;;11.20;;
20623;SDS011;10471;42.736;23.346;2022-07-24T00:26:59;26.30;;;12.07;;
20623;SDS011;10471;42.736;23.346;2022-07-24T00:29:25;20.40;;;11.43;;
20623;SDS011;10471;42.736;23.346;2022-07-24T00:31:51;18.70;;;12.07;;
20623;SDS011;10471;42.736;23.346;2022-07-24T00:34:16;18.93;;;11.77;;
20623;SDS011;10471;42.736;23.346;2022-07-24T00:36:42;15.80;;;10.80;;
20623;SDS011;10471;42.736;23.346;2022-07-24T00:39:08;18.80;;;11.47;;
20623;SDS011;10471;42.736;23.346;2022-07-24T00:41:34;18.77;;;11.43;;
20623;SDS011;10471;42.736;23.346;2022-07-24T00:44:07;24.70;;;12.20;;
20623;SDS011;10471;42.736;23.346;2022-07-24T00:46:33;25.57;;;13.70;;
20623;SDS011;10471;42.736;23.346;2022-07-24T00:49:00;19.73;;;12.37;;
20623;SDS011;10471;42.736;23.346;2022-07-24T00:51:26;25.47;;;12.73;;
20623;SDS011;10471;42.736;23.346;2022-07-24T00:53:52;27.30;;;12.67;;
20623;SDS011;10471;42.736;23.346;2022-07-24T00:56:18;19.57;;;13.23;;
20623;SDS011;10471;42.736;23.346;2022-07-24T00:58:45;23.87;;;13.40;;
20623;SDS011;10471;42.736;23.346;2022-07-24T01:01:11;31.57;;;13.53;;
20623;SDS011;10471;42.736;23.346;2022-07-24T01:03:36;29.07;;;14.00;;
20623;SDS011;10471;42.736;23.346;2022-07-24T01:06:02;23.70;;;13.17;;
20623;SDS011;10471;42.736;23.346;2022-07-24T01:08:28;19.10;;;13.07;;
20623;SDS011;10471;42.736;23.346;2022-07-24T01:10:53;28.83;;;14.17;;
20623;SDS011;10471;42.736;23.346;2022-07-24T01:13:19;22.47;;;13.27;;
20623;SDS011;10471;42.736;23.346;2022-07-24T01:15:46;21.97;;;13.17;;
20623;SDS011;10471;42.736;23.346;2022-07-24T01:18:12;24.33;;;13.63;;
20623;SDS011;10471;42.736;23.346;2022-07-24T01:20:38;20.20;;;13.23;;
20623;SDS011;10471;42.736;23.346;2022-07-24T01:23:03;27.60;;;14.43;;
20623;SDS011;10471;42.736;23.346;2022-07-24T01:25:29;24.20;;;14.33;;
20623;SDS011;10471;42.736;23.346;2022-07-24T01:27:55;27.03;;;13.50;;
20623;SDS011;10471;42.736;23.346;2022-07-24T01:30:21;23.97;;;14.60;;
20623;SDS011;10471;42.736;23.346;2022-07-24T01:32:46;26.57;;;14.80;;
20623;SDS011;10471;42.736;23.346;2022-07-24T01:35:11;23.90;;;13.83;;
20623;SDS011;10471;42.736;23.346;2022-07-24T01:37:37;23.63;;;14.83;;
20623;SDS011;10471;42.736;23.346;2022-07-24T01:40:02;30.60;;;14.87;;
20623;SDS011;10471;42.736;23.346;2022-07-24T01:42:28;29.20;;;15.07;;
20623;SDS011;10471;42.736;23.346;2022-07-24T01:44:53;21.57;;;13.90;;
20623;SDS011;10471;42.736;23.346;2022-07-24T01:47:19;26.80;;;13.47;;
20623;SDS011;10471;42.736;23.346;2022-07-24T01:49:44;24.33;;;14.33;;
20623;SDS011;10471;42.736;23.346;2022-07-24T01:52:10;24.03;;;13.63;;
20623;SDS011;10471;42.736;23.346;2022-07-24T01:54:35;24.07;;;13.83;;
20623;SDS011;10471;42.736;23.346;2022-07-24T01:57:01;24.90;;;14.13;;
20623;SDS011;10471;42.736;23.346;2022-07-24T01:59:26;20.23;;;13.17;;
20623;SDS011;10471;42.736;23.346;2022-07-24T02:01:51;22.73;;;13.17;;
20623;SDS011;10471;42.736;23.346;2022-07-24T02:04:17;22.30;;;13.10;;
20623;SDS011;10471;42.736;23.346;2022-07-24T02:06:42;23.87;;;13.27;;
20623;SDS011;10471;42.736;23.346;2022-07-24T02:09:07;25.70;;;15.70;;
20623;SDS011;10471;42.736;23.346;2022-07-24T02:11:33;24.57;;;15.63;;
20623;SDS011;10471;42.736;23.346;2022-07-24T02:13:58;25.87;;;14.03;;
20623;SDS011;10471;42.736;23.346;2022-07-24T02:16:25;19.60;;;13.20;;
20623;SDS011;10471;42.736;23.346;2022-07-24T02:18:50;22.43;;;13.90;;
20623;SDS011;10471;42.736;23.346;2022-07-24T02:21:16;22.03;;;13.67;;
20623;SDS011;10471;42.736;23.346;2022-07-24T02:23:41;21.70;;;13.27;;
20623;SDS011;10471;42.736;23.346;2022-07-24T02:26:07;24.97;;;13.80;;
20623;SDS011;10471;42.736;23.346;2022-07-24T02:28:32;20.77;;;13.13;;
20623;SDS011;10471;42.736;23.346;2022-07-24T02:30:58;21.27;;;13.17;;
20623;SDS011;10471;42.736;23.346;2022-07-24T02:33:23;25.57;;;13.60;;
20623;SDS011;10471;42.736;23.346;2022-07-24T02:35:48;26.40;;;13.80;;
20623;SDS011;10471;42.736;23.346;2022-07-24T02:38:14;21.30;;;13.73;;
20623;SDS011;10471;42.736;23.346;2022-07-24T02:40:39;21.83;;;13.80;;
20623;SDS011;10471;42.736;23.346;2022-07-24T02:43:05;21.43;;;13.27;;
20623;SDS011;10471;42.736;23.346;2022-07-24T02:45:30;23.87;;;14.13;;
20623;SDS011;10471;42.736;23.346;2022-07-24T02:47:56;26.73;;;13.90;;
20623;SDS011;10471;42.736;23.346;2022-07-24T02:50:23;21.40;;;13.90;;
20623;SDS011;10471;42.736;23.346;2022-07-24T02:52:49;24.47;;;13.77;;
20623;SDS011;10471;42.736;23.346;2022-07-24T02:55:15;22.83;;;14.07;;
20623;SDS011;10471;42.736;23.346;2022-07-24T02:57:41;21.53;;;13.37;;
20623;SDS011;10471;42.736;23.346;2022-07-24T03:00:07;18.03;;;12.83;;
20623;SDS011;10471;42.736;23.346;2022-07-24T03:02:35;20.73;;;13.17;;
20623;SDS011;10471;42.736;23.346;2022-07-24T03:05:01;22.27;;;12.23;;
20623;SDS011;10471;42.736;23.346;2022-07-24T03:07:28;22.50;;;11.80;;
20623;SDS011;10471;42.736;23.346;2022-07-24T03:09:54;31.13;;;12.23;;
20623;SDS011;10471;42.736;23.346;2022-07-24T03:12:19;20.63;;;11.60;;
20623;SDS011;10471;42.736;23.346;2022-07-24T03:14:45;17.67;;;11.23;;
20623;SDS011;10471;42.736;23.346;2022-07-24T03:17:10;20.73;;;11.50;;
20623;SDS011;10471;42.736;23.346;2022-07-24T03:19:36;22.03;;;12.07;;
20623;SDS011;10471;42.736;23.346;2022-07-24T03:22:01;18.70;;;10.70;;
20623;SDS011;10471;42.736;23.346;2022-07-24T03:24:26;18.93;;;11.50;;
20623;SDS011;10471;42.736;23.346;2022-07-24T03:26:52;18.87;;;10.87;;
20623;SDS011;10471;42.736;23.346;2022-07-24T03:29:17;20.63;;;10.83;;
20623;SDS011;10471;42.736;23.346;2022-07-24T03:31:43;18.27;;;11.03;;
20623;SDS011;10471;42.736;23.346;2022-07-24T03:34:08;23.60;;;10.87;;
20623;SDS011;10471;42.736;23.346;2022-07-24T03:36:34;15.70;;;10.67;;
20623;SDS011;10471;42.736;23.346;2022-07-24T03:39:00;16.83;;;10.53;;
20623;SDS011;10471;42.736;23.346;2022-07-24T03:41:25;18.00;;;11.17;;
20623;SDS011;10471;42.736;23.346;2022-07-24T03:43:51;25.47;;;11.80;;
20623;SDS011;10471;42.736;23.346;2022-07-24T03:46:16;18.73;;;11.90;;
20623;SDS011;10471;42.736;23.346;2022-07-24T03:48:42;22.30;;;11.20;;
20623;SDS011;10471;42.736;23.346;2022-07-24T03:51:07;20.83;;;11.83;;
20623;SDS011;10471;42.736;23.346;2022-07-24T03:53:32;19.60;;;11.40;;
20623;SDS011;10471;42.736;23.346;2022-07-24T03:55:58;22.27;;;11.27;;
20623;SDS011;10471;42.736;23.346;2022-07-24T03:58:23;20.00;;;12.70;;
20623;SDS011;10471;42.736;23.346;2022-07-24T04:00:49;25.00;;;12.03;;
20623;SDS011;10471;42.736;23.346;2022-07-24T04:03:14;20.57;;;12.30;;
20623;SDS011;10471;42.736;23.346;2022-07-24T04:05:39;28.60;;;12.30;;
20623;SDS011;10471;42.736;23.346;2022-07-24T04:08:05;29.97;;;12.60;;
20623;SDS011;10471;42.736;23.346;2022-07-24T04:10:30;39.63;;;13.50;;
20623;SDS011;10471;42.736;23.346;2022-07-24T04:12:56;36.37;;;12.93;;
20623;SDS011;10471;42.736;23.346;2022-07-24T04:15:21;23.23;;;12.70;;
20623;SDS011;10471;42.736;23.346;2022-07-24T04:17:46;34.90;;;14.33;;
20623;SDS011;10471;42.736;23.346;2022-07-24T04:20:12;19.10;;;12.27;;
20623;SDS011;10471;42.736;23.346;2022-07-24T04:22:37;25.83;;;13.23;;
20623;SDS011;10471;42.736;23.346;2022-07-24T04:25:03;25.80;;;12.37;;
20623;SDS011;10471;42.736;23.346;2022-07-24T04:27:30;24.37;;;12.67;;
20623;SDS011;10471;42.736;23.346;2022-07-24T04:29:56;20.57;;;12.67;;
20623;SDS011;10471;42.736;23.346;2022-07-24T04:32:23;21.33;;;12.07;;
20623;SDS011;10471;42.736;23.346;2022-07-24T04:34:48;21.37;;;11.53;;
20623;SDS011;10471;42.736;23.346;2022-07-24T04:37:13;24.50;;;12.13;;
20623;SDS011;10471;42.736;23.346;2022-07-24T04:39:39;17.27;;;10.37;;
20623;SDS011;10471;42.736;23.346;2022-07-24T04:42:04;21.00;;;11.50;;
20623;SDS011;10471;42.736;23.346;2022-07-24T04:44:30;21.00;;;10.67;;
20623;SDS011;10471;42.736;23.346;2022-07-24T04:46:55;18.27;;;10.60;;
20623;SDS011;10471;42.736;23.346;2022-07-24T04:49:20;21.30;;;10.93;;
20623;SDS011;10471;42.736;23.346;2022-07-24T04:51:46;17.40;;;10.90;;
20623;SDS011;10471;42.736;23.346;2022-07-24T04:54:11;23.27;;;11.17;;
20623;SDS011;10471;42.736;23.346;2022-07-24T04:56:36;21.53;;;11.37;;
20623;SDS011;10471;42.736;23.346;2022-07-24T04:59:02;18.93;;;10.80;;
20623;SDS011;10471;42.736;23.346;2022-07-24T05:01:27;18.43;;;10.77;;
20623;SDS011;10471;42.736;23.346;2022-07-24T05:03:53;21.00;;;10.90;;
20623;SDS011;10471;42.736;23.346;2022-07-24T05:06:21;13.43;;;10.27;;
20623;SDS011;10471;42.736;23.346;2022-07-24T05:08:47;18.40;;;10.23;;
20623;SDS011;10471;42.736;23.346;2022-07-24T05:11:12;20.70;;;10.70;;
20623;SDS011;10471;42.736;23.346;2022-07-24T05:13:38;17.13;;;10.03;;
20623;SDS011;10471;42.736;23.346;2022-07-24T05:16:03;19.53;;;10.37;;
20623;SDS011;10471;42.736;23.346;2022-07-24T05:18:29;18.60;;;9.93;;
20623;SDS011;10471;42.736;23.346;2022-07-24T05:20:54;21.60;;;11.03;;
20623;SDS011;10471;42.736;23.346;2022-07-24T05:23:20;20.07;;;10.03;;
20623;SDS011;10471;42.736;23.346;2022-07-24T05:25:45;17.00;;;9.80;;
20623;SDS011;10471;42.736;23.346;2022-07-24T05:28:11;26.97;;;10.80;;
20623;SDS011;10471;42.736;23.346;2022-07-24T05:30:36;20.80;;;10.30;;
20623;SDS011;10471;42.736;23.346;2022-07-24T05:33:01;21.60;;;11.30;;
20623;SDS011;10471;42.736;23.346;2022-07-24T05:35:27;28.07;;;10.30;;
20623;SDS011;10471;42.736;23.346;2022-07-24T05:37:52;17.97;;;10.63;;
20623;SDS011;10471;42.736;23.346;2022-07-24T05:40:17;26.07;;;11.17;;
20623;SDS011;10471;42.736;23.346;2022-07-24T05:42:43;20.13;;;10.93;;
20623;SDS011;10471;42.736;23.346;2022-07-24T05:45:08;19.87;;;11.10;;
20623;SDS011;10471;42.736;23.346;2022-07-24T05:47:35;22.87;;;10.57;;
20623;SDS011;10471;42.736;23.346;2022-07-24T05:50:02;20.60;;;10.53;;
20623;SDS011;10471;42.736;23.346;2022-07-24T05:52:28;16.80;;;10.90;;
20623;SDS011;10471;42.736;23.346;2022-07-24T05:54:53;21.47;;;11.30;;
20623;SDS011;10471;42.736;23.346;2022-07-24T05:57:19;24.37;;;11.23;;
20623;SDS011;10471;42.736;23.346;2022-07-24T05:59:44;18.07;;;10.70;;
20623;SDS011;10471;42.736;23.346;2022-07-24T06:02:09;19.30;;;10.67;;
20623;SDS011;10471;42.736;23.346;2022-07-24T06:04:35;26.70;;;11.30;;
20623;SDS011;10471;42.736;23.346;2022-07-24T06:07:01;19.77;;;11.33;;
20623;SDS011;10471;42.736;23.346;2022-07-24T06:09:26;18.13;;;11.87;;
20623;SDS011;10471;42.736;23.346;2022-07-24T06:11:51;22.83;;;11.57;;
20623;SDS011;10471;42.736;23.346;2022-07-24T06:14:17;20.73;;;11.83;;
20623;SDS011;10471;42.736;23.346;2022-07-24T06:16:43;23.07;;;11.47;;
20623;SDS011;10471;42.736;23.346;2022-07-24T06:19:09;20.93;;;10.83;;
20623;SDS011;10471;42.736;23.346;2022-07-24T06:21:34;22.30;;;11.83;;
20623;SDS011;10471;42.736;23.346;2022-07-24T06:23:59;19.93;;;10.97;;
20623;SDS011;10471;42.736;23.346;2022-07-24T06:26:25;20.87;;;12.20;;
20623;SDS011;10471;42.736;23.346;2022-07-24T06:28:50;18.93;;;11.40;;
20623;SDS011;10471;42.736;23.346;2022-07-24T06:31:15;23.90;;;12.53;;
20623;SDS011;10471;42.736;23.346;2022-07-24T06:33:41;23.10;;;10.97;;
20623;SDS011;10471;42.736;23.346;2022-07-24T06:36:06;20.63;;;11.27;;
20623;SDS011;10471;42.736;23.346;2022-07-24T06:38:32;19.03;;;11.20;;
20623;SDS011;10471;42.736;23.346;2022-07-24T06:40:57;18.43;;;11.57;;
20623;SDS011;10471;42.736;23.346;2022-07-24T06:43:23;20.07;;;11.27;;
20623;SDS011;10471;42.736;23.346;2022-07-24T06:45:48;19.23;;;11.07;;
20623;SDS011;10471;42.736;23.346;2022-07-24T06:48:14;18.50;;;10.70;;
20623;SDS011;10471;42.736;23.346;2022-07-24T06:50:39;25.60;;;11.97;;
20623;SDS011;10471;42.736;23.346;2022-07-24T06:53:04;21.80;;;11.57;;
20623;SDS011;10471;42.736;23.346;2022-07-24T06:55:30;22.47;;;11.10;;
20623;SDS011;10471;42.736;23.346;2022-07-24T06:57:55;15.73;;;11.13;;
20623;SDS011;10471;42.736;23.346;2022-07-24T07:00:21;24.63;;;10.60;;
20623;SDS011;10471;42.736;23.346;2022-07-24T07:02:46;15.60;;;10.73;;
20623;SDS011;10471;42.736;23.346;2022-07-24T07:05:12;21.23;;;11.03;;
20623;SDS011;10471;42.736;23.346;2022-07-24T07:07:37;21.07;;;10.93;;
20623;SDS011;10471;42.736;23.346;2022-07-24T07:10:04;18.67;;;11.20;;
20623;SDS011;10471;42.736;23.346;2022-07-24T07:12:30;17.93;;;11.13;;
20623;SDS011;10471;42.736;23.346;2022-07-24T07:14:56;23.57;;;11.83;;
20623;SDS011;10471;42.736;23.346;2022-07-24T07:17:23;20.73;;;11.73;;
20623;SDS011;10471;42.736;23.346;2022-07-24T07:19:48;14.83;;;10.93;;
20623;SDS011;10471;42.736;23.346;2022-07-24T07:22:14;19.83;;;10.70;;
20623;SDS011;10471;42.736;23.346;2022-07-24T07:24:39;17.80;;;10.10;;
20623;SDS011;10471;42.736;23.346;2022-07-24T07:27:05;16.70;;;10.63;;
20623;SDS011;10471;42.736;23.346;2022-07-24T07:29:30;19.57;;;10.60;;
20623;SDS011;10471;42.736;23.346;2022-07-24T07:31:55;21.70;;;11.50;;
20623;SDS011;10471;42.736;23.346;2022-07-24T07:34:21;19.53;;;10.83;;
20623;SDS011;10471;42.736;23.346;2022-07-24T07:36:46;19.47;;;10.80;;
20623;SDS011;10471;42.736;23.346;2022-07-24T07:39:12;15.90;;;10.40;;
20623;SDS011;10471;42.736;23.346;2022-07-24T07:41:37;17.70;;;10.97;;
20623;SDS011;10471;42.736;23.346;2022-07-24T07:44:02;20.03;;;10.63;;
20623;SDS011;10471;42.736;23.346;2022-07-24T07:46:29;16.27;;;10.17;;
20623;SDS011;10471;42.736;23.346;2022-07-24T07:48:54;18.27;;;11.07;;
20623;SDS011;10471;42.736;23.346;2022-07-24T07:51:20;15.83;;;10.80;;
20623;SDS011;10471;42.736;23.346;2022-07-24T07:53:45;17.93;;;10.27;;
20623;SDS011;10471;42.736;23.346;2022-07-24T07:56:11;19.50;;;10.30;;
20623;SDS011;10471;42.736;23.346;2022-07-24T07:58:36;14.80;;;10.10;;
20623;SDS011;10471;42.736;23.346;2022-07-24T08:01:02;17.57;;;9.53;;
20623;SDS011;10471;42.736;23.346;2022-07-24T08:03:27;17.43;;;10.30;;
20623;SDS011;10471;42.736;23.346;2022-07-24T08:05:53;21.53;;;9.97;;
20623;SDS011;10471;42.736;23.346;2022-07-24T08:08:18;12.63;;;10.07;;
20623;SDS011;10471;42.736;23.346;2022-07-24T08:10:43;21.73;;;10.33;;
20623;SDS011;10471;42.736;23.346;2022-07-24T08:13:09;16.50;;;10.27;;
20623;SDS011;10471;42.736;23.346;2022-07-24T08:15:36;13.97;;;9.70;;
20623;SDS011;10471;42.736;23.346;2022-07-24T08:18:01;16.67;;;10.27;;
20623;SDS011;10471;42.736;23.346;2022-07-24T08:20:27;19.83;;;10.90;;
20623;SDS011;10471;42.736;23.346;2022-07-24T08:22:52;16.93;;;9.87;;
20623;SDS011;10471;42.736;23.346;2022-07-24T08:25:18;13.03;;;9.93;;
20623;SDS011;10471;42.736;23.346;2022-07-24T08:27:43;16.33;;;9.70;;
20623;SDS011;10471;42.736;23.346;2022-07-24T08:30:09;21.33;;;10.20;;
20623;SDS011;10471;42.736;23.346;2022-07-24T08:32:36;17.33;;;9.90;;
20623;SDS011;10471;42.736;23.346;2022-07-24T08:35:03;20.53;;;10.70;;
20623;SDS011;10471;42.736;23.346;2022-07-24T08:37:29;17.87;;;10.13;;
20623;SDS011;10471;42.736;23.346;2022-07-24T08:39:54;18.93;;;10.80;;
20623;SDS011;10471;42.736;23.346;2022-07-24T08:42:20;16.13;;;10.00;;
20623;SDS011;10471;42.736;23.346;2022-07-24T08:44:46;17.30;;;10.20;;
20623;SDS011;10471;42.736;23.346;2022-07-24T08:47:12;15.60;;;10.03;;
20623;SDS011;10471;42.736;23.346;2022-07-24T08:49:40;19.97;;;10.30;;
20623;SDS011;10471;42.736;23.346;2022-07-24T08:52:06;19.83;;;10.73;;
20623;SDS011;10471;42.736;23.346;2022-07-24T08:54:33;24.15;;;11.27;;
20623;SDS011;10471;42.736;23.346;2022-07-24T08:57:00;19.42;;;10.20;;
20623;SDS011;10471;42.736;23.346;2022-07-24T08:59:25;18.03;;;10.00;;
20623;SDS011;10471;42.736;23.346;2022-07-24T09:01:51;16.77;;;9.80;;
20623;SDS011;10471;42.736;23.346;2022-07-24T09:07:03;16.30;;;10.50;;
20623;SDS011;10471;42.736;23.346;2022-07-24T09:09:31;17.80;;;10.77;;
20623;SDS011;10471;42.736;23.346;2022-07-24T09:14:35;17.58;;;10.43;;
20623;SDS011;10471;42.736;23.346;2022-07-24T09:17:08;20.48;;;10.63;;
20623;SDS011;10471;42.736;23.346;2022-07-24T09:19:57;19.67;;;10.95;;
20623;SDS011;10471;42.736;23.346;2022-07-24T09:30:21;17.77;;;10.38;;
20623;SDS011;10471;42.736;23.346;2022-07-24T09:32:51;20.90;;;10.70;;
20623;SDS011;10471;42.736;23.346;2022-07-24T09:35:25;16.98;;;11.57;;
20623;SDS011;10471;42.736;23.346;2022-07-24T09:38:04;17.48;;;10.68;;
20623;SDS011;10471;42.736;23.346;2022-07-24T09:40:35;17.95;;;10.63;;
20623;SDS011;10471;42.736;23.346;2022-07-24T09:43:12;16.65;;;10.63;;
20623;SDS011;10471;42.736;23.346;2022-07-24T09:46:00;20.02;;;11.55;;
20623;SDS011;10471;42.736;23.346;2022-07-24T09:48:38;20.23;;;10.98;;
20623;SDS011;10471;42.736;23.346;2022-07-24T09:51:14;19.83;;;11.15;;
20623;SDS011;10471;42.736;23.346;2022-07-24T09:53:41;17.48;;;10.82;;
20623;SDS011;10471;42.736;23.346;2022-07-24T09:56:10;20.10;;;11.40;;
20623;SDS011;10471;42.736;23.346;2022-07-24T09:58:38;22.33;;;10.80;;
20623;SDS011;10471;42.736;23.346;2022-07-24T10:01:06;21.85;;;10.85;;
20623;SDS011;10471;42.736;23.346;2022-07-24T10:03:34;16.25;;;10.07;;
20623;SDS011;10471;42.736;23.346;2022-07-24T10:06:03;15.20;;;10.27;;
20623;SDS011;10471;42.736;23.346;2022-07-24T10:08:31;19.65;;;10.50;;
20623;SDS011;10471;42.736;23.346;2022-07-24T10:10:57;16.05;;;9.27;;
20623;SDS011;10471;42.736;23.346;2022-07-24T10:13:24;16.90;;;9.07;;
20623;SDS011;10471;42.736;23.346;2022-07-24T10:18:19;15.25;;;9.10;;
20623;SDS011;10471;42.736;23.346;2022-07-24T10:20:47;14.25;;;9.02;;
20623;SDS011;10471;42.736;23.346;2022-07-24T10:23:20;15.13;;;9.25;;
20623;SDS011;10471;42.736;23.346;2022-07-24T10:28:23;18.27;;;10.65;;
20623;SDS011;10471;42.736;23.346;2022-07-24T10:31:01;13.65;;;8.48;;
20623;SDS011;10471;42.736;23.346;2022-07-24T10:33:27;12.85;;;8.93;;
20623;SDS011;10471;42.736;23.346;2022-07-24T10:35:53;12.02;;;9.00;;
20623;SDS011;10471;42.736;23.346;2022-07-24T10:38:27;12.45;;;8.55;;
20623;SDS011;10471;42.736;23.346;2022-07-24T10:41:01;13.27;;;9.63;;
20623;SDS011;10471;42.736;23.346;2022-07-24T10:43:30;9.45;;;8.50;;
20623;SDS011;10471;42.736;23.346;2022-07-24T10:58:52;10.70;;;8.55;;
20623;SDS011;10471;42.736;23.346;2022-07-24T11:04:23;9.60;;;8.32;;
20623;SDS011;10471;42.736;23.346;2022-07-24T11:06:54;10.05;;;8.43;;
20623;SDS011;10471;42.736;23.346;2022-07-24T11:09:20;15.10;;;8.57;;
20623;SDS011;10471;42.736;23.346;2022-07-24T11:14:17;10.05;;;9.02;;
20623;SDS011;10471;42.736;23.346;2022-07-24T11:16:43;9.63;;;8.70;;
20623;SDS011;10471;42.736;23.346;2022-07-24T11:21:37;14.98;;;9.48;;
20623;SDS011;10471;42.736;23.346;2022-07-24T11:26:51;12.75;;;8.20;;
20623;SDS011;10471;42.736;23.346;2022-07-24T11:31:51;12.75;;;9.20;;
20623;SDS011;10471;42.736;23.346;2022-07-24T11:34:19;13.05;;;8.63;;
20623;SDS011;10471;42.736;23.346;2022-07-24T11:36:46;14.27;;;9.60;;
20623;SDS011;10471;42.736;23.346;2022-07-24T11:39:15;10.60;;;8.77;;
20623;SDS011;10471;42.736;23.346;2022-07-24T11:44:10;15.02;;;9.40;;
20623;SDS011;10471;42.736;23.346;2022-07-24T11:46:37;13.52;;;8.40;;
20623;SDS011;10471;42.736;23.346;2022-07-24T11:49:05;11.10;;;8.88;;
20623;SDS011;10471;42.736;23.346;2022-07-24T11:51:32;15.68;;;9.50;;
20623;SDS011;10471;42.736;23.346;2022-07-24T11:54:09;14.90;;;9.07;;
20623;SDS011;10471;42.736;23.346;2022-07-24T11:56:36;14.45;;;9.05;;
20623;SDS011;10471;42.736;23.346;2022-07-24T11:59:02;13.30;;;9.18;;
20623;SDS011;10471;42.736;23.346;2022-07-24T12:01:28;15.18;;;8.93;;
20623;SDS011;10471;42.736;23.346;2022-07-24T12:03:54;10.57;;;9.27;;
20623;SDS011;10471;42.736;23.346;2022-07-24T12:06:22;15.77;;;9.30;;
20623;SDS011;10471;42.736;23.346;2022-07-24T12:08:48;12.07;;;8.70;;
20623;SDS011;10471;42.736;23.346;2022-07-24T12:11:20;12.65;;;8.88;;
20623;SDS011;10471;42.736;23.346;2022-07-24T12:13:49;11.88;;;9.57;;
20623;SDS011;10471;42.736;23.346;2022-07-24T12:16:23;15.00;;;9.48;;
20623;SDS011;10471;42.736;23.346;2022-07-24T12:18:50;14.32;;;9.63;;
20623;SDS011;10471;42.736;23.346;2022-07-24T12:21:15;13.65;;;8.63;;
20623;SDS011;10471;42.736;23.346;2022-07-24T12:23:44;10.55;;;9.45;;
20623;SDS011;10471;42.736;23.346;2022-07-24T12:26:10;16.30;;;9.32;;
20623;SDS011;10471;42.736;23.346;2022-07-24T12:28:35;14.75;;;9.00;;
20623;SDS011;10471;42.736;23.346;2022-07-24T12:31:05;13.02;;;9.48;;
20623;SDS011;10471;42.736;23.346;2022-07-24T12:33:33;12.65;;;8.82;;
20623;SDS011;10471;42.736;23.346;2022-07-24T12:38:29;11.18;;;8.45;;
20623;SDS011;10471;42.736;23.346;2022-07-24T12:43:33;12.48;;;8.48;;
20623;SDS011;10471;42.736;23.346;2022-07-24T12:46:11;11.05;;;8.43;;
20623;SDS011;10471;42.736;23.346;2022-07-24T12:48:37;11.20;;;8.43;;
20623;SDS011;10471;42.736;23.346;2022-07-24T12:51:09;12.20;;;8.70;;
20623;SDS011;10471;42.736;23.346;2022-07-24T12:53:38;9.45;;;8.40;;
20623;SDS011;10471;42.736;23.346;2022-07-24T12:56:07;9.18;;;8.35;;
20623;SDS011;10471;42.736;23.346;2022-07-24T13:01:43;12.85;;;8.90;;
20623;SDS011;10471;42.736;23.346;2022-07-24T13:04:15;10.27;;;8.23;;
20623;SDS011;10471;42.736;23.346;2022-07-24T13:06:44;10.68;;;8.50;;
20623;SDS011;10471;42.736;23.346;2022-07-24T13:09:11;10.00;;;8.95;;
20623;SDS011;10471;42.736;23.346;2022-07-24T13:11:38;9.25;;;8.45;;
20623;SDS011;10471;42.736;23.346;2022-07-24T13:14:05;9.48;;;8.27;;
20623;SDS011;10471;42.736;23.346;2022-07-24T13:16:33;9.07;;;8.10;;
20623;SDS011;10471;42.736;23.346;2022-07-24T13:19:00;9.55;;;8.65;;
20623;SDS011;10471;42.736;23.346;2022-07-24T13:21:26;10.35;;;9.00;;
20623;SDS011;10471;42.736;23.346;2022-07-24T13:23:54;12.10;;;8.40;;
20623;SDS011;10471;42.736;23.346;2022-07-24T13:26:19;15.65;;;9.18;;
20623;SDS011;10471;42.736;23.346;2022-07-24T13:28:45;13.13;;;9.60;;
20623;SDS011;10471;42.736;23.346;2022-07-24T13:31:11;12.57;;;9.23;;
20623;SDS011;10471;42.736;23.346;2022-07-24T13:33:36;10.00;;;8.90;;
20623;SDS011;10471;42.736;23.346;2022-07-24T13:36:02;12.68;;;9.30;;
20623;SDS011;10471;42.736;23.346;2022-07-24T13:38:27;13.25;;;10.88;;
20623;SDS011;10471;42.736;23.346;2022-07-24T13:40:53;13.27;;;10.75;;
20623;SDS011;10471;42.736;23.346;2022-07-24T13:43:18;10.75;;;9.65;;
20623;SDS011;10471;42.736;23.346;2022-07-24T13:45:44;14.07;;;10.23;;
20623;SDS011;10471;42.736;23.346;2022-07-24T13:48:09;10.80;;;9.32;;
20623;SDS011;10471;42.736;23.346;2022-07-24T13:50:35;9.40;;;7.45;;
20623;SDS011;10471;42.736;23.346;2022-07-24T13:53:00;10.30;;;8.50;;
20623;SDS011;10471;42.736;23.346;2022-07-24T13:55:25;9.88;;;7.88;;
20623;SDS011;10471;42.736;23.346;2022-07-24T13:57:51;10.45;;;8.07;;
20623;SDS011;10471;42.736;23.346;2022-07-24T14:00:16;12.38;;;8.15;;
20623;SDS011;10471;42.736;23.346;2022-07-24T14:02:42;8.73;;;7.88;;
20623;SDS011;10471;42.736;23.346;2022-07-24T14:05:07;29.08;;;10.18;;
20623;SDS011;10471;42.736;23.346;2022-07-24T14:07:33;36.85;;;10.70;;
20623;SDS011;10471;42.736;23.346;2022-07-24T14:09:59;20.08;;;9.98;;
20623;SDS011;10471;42.736;23.346;2022-07-24T14:12:24;20.20;;;9.75;;
20623;SDS011;10471;42.736;23.346;2022-07-24T14:14:50;17.67;;;10.45;;
20623;SDS011;10471;42.736;23.346;2022-07-24T14:17:15;13.98;;;10.18;;
20623;SDS011;10471;42.736;23.346;2022-07-24T14:19:41;14.60;;;10.73;;
20623;SDS011;10471;42.736;23.346;2022-07-24T14:22:06;13.57;;;10.85;;
20623;SDS011;10471;42.736;23.346;2022-07-24T14:24:32;13.87;;;12.07;;
20623;SDS011;10471;42.736;23.346;2022-07-24T14:26:57;16.20;;;12.80;;
20623;SDS011;10471;42.736;23.346;2022-07-24T14:29:23;18.20;;;13.77;;
20623;SDS011;10471;42.736;23.346;2022-07-24T14:31:49;19.07;;;12.53;;
20623;SDS011;10471;42.736;23.346;2022-07-24T14:34:15;13.97;;;12.40;;
20623;SDS011;10471;42.736;23.346;2022-07-24T14:36:41;13.70;;;12.37;;
20623;SDS011;10471;42.736;23.346;2022-07-24T14:39:07;17.97;;;14.30;;
20623;SDS011;10471;42.736;23.346;2022-07-24T14:41:32;15.97;;;14.23;;
20623;SDS011;10471;42.736;23.346;2022-07-24T14:43:58;19.80;;;14.53;;
20623;SDS011;10471;42.736;23.346;2022-07-24T14:46:23;20.13;;;16.10;;
20623;SDS011;10471;42.736;23.346;2022-07-24T14:48:49;17.23;;;15.47;;
20623;SDS011;10471;42.736;23.346;2022-07-24T14:51:14;16.67;;;15.07;;
20623;SDS011;10471;42.736;23.346;2022-07-24T14:53:40;15.43;;;13.90;;
20623;SDS011;10471;42.736;23.346;2022-07-24T14:56:05;15.43;;;14.05;;
20623;SDS011;10471;42.736;23.346;2022-07-24T14:58:31;15.60;;;13.98;;
20623;SDS011;10471;42.736;23.346;2022-07-24T15:00:56;16.27;;;14.60;;
20623;SDS011;10471;42.736;23.346;2022-07-24T15:03:21;15.65;;;14.13;;